Historique des mesures à Cassis (13260), France
Quotidien Résumé Octobre 18, 2017 Unités:  Métrique    US   Métrique/US
« Précédent (Jour)
Suivant (Jour) »
Quotidien Hebdomadaire Mensuel Annuel Période au choix
  Maximum: Minimum: Moyenne:
Température: TemperatureC °C 15.3 °C 17.4 °C
Point de rosée: DewpointC °C 12.3 °C 13.2 °C
Humidité: Humidity % 66 % 73 %
Vitesse du vent: 0 km/h 0 km/h 5.1 km/h
Rafales: 0 km/h - -
Vent:- - SE
Pression: PressurehPa hPa 1012.4 hPa -
Précipitations: 0.0 mm    
Historical Graphs
 
 
Mesures pour : Octobre 18, 2017
Heure Temperature Point de rosée Pression Vent Vitesse du vent Rafales Humidité Pluie (par heure) Conditions
TemperatureC °C DewpointC °C PressurehPa hPa Calm     Humidity % HourlyPrecipMM mm SoftwareType W/m2
00:11 16.3 °C 13.1 °C 1018.8 hPa Calm     81 % 0.0 mm open2300-1.11 W/m2
01:11 16.3 °C 13.4 °C 1018.5 hPa Calm     83 % 0.0 mm open2300-1.11 W/m2
02:11 15.8 °C 12.9 °C 1018.2 hPa Calm   2.9 km/h 83 % 0.0 mm open2300-1.11 W/m2
03:11 15.8 °C 12.9 °C 1017.5 hPa Calm     83 % 0.0 mm open2300-1.11 W/m2
04:11 15.5 °C 12.7 °C 1016.8 hPa Calm     83 % 0.0 mm open2300-1.11 W/m2
06:11 15.7 °C 12.7 °C 1016.1 hPa North 3.4 km/h 3.4 km/h 82 % 0.0 mm open2300-1.11 W/m2
07:11 15.3 °C 12.3 °C 1015.8 hPa Calm     82 % 0.0 mm open2300-1.11 W/m2
08:11 15.4 °C 12.3 °C 1015.5 hPa ENE 2.3 km/h 2.3 km/h 82 % 0.0 mm open2300-1.11 W/m2
09:11 16.3 °C 13.2 °C 1015.8 hPa SE 2.3 km/h 5.1 km/h 82 % 0.0 mm open2300-1.11 W/m2
10:11 17.3 °C 13.8 °C 1015.5 hPa East 1.8 km/h 2.9 km/h 80 % 0.0 mm open2300-1.11 W/m2
11:11 18.9 °C 14.3 °C 1015.5 hPa ESE 5.6 km/h 6.4 km/h 75 % 0.0 mm open2300-1.11 W/m2
12:11 20.5 °C 14.8 °C 1015.1 hPa SSE 22.5 km/h 22.5 km/h 70 % 0.0 mm open2300-1.11 W/m2
13:11 21.6 °C 15.2 °C 1014.4 hPa SE 9.3 km/h 9.8 km/h 67 % 0.0 mm open2300-1.11 W/m2
14:11 21.8 °C 15.1 °C 1013.8 hPa South 17.4 km/h 17.4 km/h 66 % 0.0 mm open2300-1.11 W/m2
15:11 21.5 °C 14.9 °C 1013.1 hPa ESE 3.4 km/h 9.8 km/h 66 % 0.0 mm open2300-1.11 W/m2
16:11 21.4 °C 15.0 °C 1012.8 hPa SE 14 km/h 14 km/h 67 % 0.0 mm open2300-1.11 W/m2
17:11 20.5 °C 14.8 °C 1012.8 hPa South 5.1 km/h 11.6 km/h 70 % 0.0 mm open2300-1.11 W/m2
18:11 19.9 °C 14.7 °C 1012.4 hPa SE 9.3 km/h 9.3 km/h 72 % 0.0 mm open2300-1.11 W/m2
19:11 19.3 °C 14.3 °C 1012.4 hPa South 11.6 km/h 11.6 km/h 73 % 0.0 mm open2300-1.11 W/m2
20:11 19.1 °C 14.1 °C 1013.1 hPa SSE 5.6 km/h 5.6 km/h 73 % 0.0 mm open2300-1.11 W/m2
21:11 18.6 °C 13.9 °C 1012.8 hPa East 2.3 km/h 6.4 km/h 74 % 0.0 mm open2300-1.11 W/m2
22:11 18.2 °C 13.5 °C 1012.8 hPa NW 3.4 km/h 4.7 km/h 74 % 0.0 mm open2300-1.11 W/m2
Observations météo à CASSIS
WU-History script by Weather Underground - 1 mb